EZY741 LIRN-EGKK
Flight info
| Callsign | EZY741 |
|---|---|
| Flight time | N/A |
| Altitude | 38000 |
| Route | ALAXI DCT INSOX DCT NIKMA DCT VERUN DCT ABESI DCT UTAVO DCT ELMUR DCT RIPUS DCT DITON DCT HOC DCT LUL DCT RLP DCT ROTSI DCT KOTUN DCT NINAL DCT KESAX DCT KUNAV |
| Aircraft | A20N/M-SDE2E3FGHIRWXY/LB1 |
Departure
| Time | 2026-04-27 15:22 |
|---|---|
| Airport | Naples International Airport (LIRN) |
Arrival
| Time | N/A |
|---|---|
| Airport | London Gatwick Airport (EGKK) |
| Time | Latitude | Longitude | Altitude | Speed | Heading |
|---|---|---|---|---|---|
| 2026-04-27 15:01 | 40.87858 | 14.28404 | 293 ft | 0 kts | 187° |
| 2026-04-27 15:12 | 40.87859 | 14.28404 | 293 ft | 2 kts | 185° |
| 2026-04-27 15:12 | 40.87872 | 14.28405 | 297 ft | 0 kts | 182° |
| 2026-04-27 15:14 | 40.87879 | 14.28406 | 295 ft | 2 kts | 182° |
| 2026-04-27 15:15 | 40.87895 | 14.28407 | 296 ft | 2 kts | 182° |
| 2026-04-27 15:15 | 40.87912 | 14.28408 | 294 ft | 2 kts | 181° |
| 2026-04-27 15:15 | 40.87928 | 14.28406 | 295 ft | 2 kts | 158° |
| 2026-04-27 15:15 | 40.87941 | 14.28395 | 295 ft | 2 kts | 126° |
| 2026-04-27 15:16 | 40.87949 | 14.28376 | 296 ft | 2 kts | 104° |
| 2026-04-27 15:16 | 40.87943 | 14.28390 | 296 ft | 2 kts | 116° |
| 2026-04-27 15:16 | 40.87941 | 14.28401 | 295 ft | 0 kts | 105° |
| 2026-04-27 15:16 | 40.87940 | 14.28401 | 295 ft | 0 kts | 105° |
| 2026-04-27 15:17 | 40.87940 | 14.28402 | 295 ft | 1 kts | 105° |
| 2026-04-27 15:18 | 40.87945 | 14.28440 | 292 ft | 9 kts | 78° |
| 2026-04-27 15:18 | 40.88007 | 14.28545 | 287 ft | 20 kts | 45° |
| 2026-04-27 15:18 | 40.88113 | 14.28724 | 281 ft | 29 kts | 54° |
| 2026-04-27 15:18 | 40.88253 | 14.28963 | 274 ft | 37 kts | 52° |
| 2026-04-27 15:19 | 40.88417 | 14.29251 | 265 ft | 36 kts | 53° |
| 2026-04-27 15:19 | 40.88530 | 14.29443 | 258 ft | 27 kts | 52° |
| 2026-04-27 15:19 | 40.88652 | 14.29657 | 252 ft | 31 kts | 51° |
| 2026-04-27 15:19 | 40.88788 | 14.29894 | 244 ft | 34 kts | 52° |
| 2026-04-27 15:20 | 40.88938 | 14.30150 | 236 ft | 37 kts | 55° |
| 2026-04-27 15:20 | 40.89040 | 14.30330 | 230 ft | 0 kts | 52° |
| 2026-04-27 15:20 | 40.89054 | 14.30353 | 230 ft | 6 kts | 52° |
| 2026-04-27 15:20 | 40.89095 | 14.30421 | 227 ft | 13 kts | 48° |
| 2026-04-27 15:21 | 40.89186 | 14.30436 | 224 ft | 16 kts | 318° |
| 2026-04-27 15:21 | 40.89191 | 14.30315 | 226 ft | 15 kts | 240° |
| 2026-04-27 15:21 | 40.89043 | 14.30011 | 239 ft | 74 kts | 237° |
| 2026-04-27 15:21 | 40.88653 | 14.29187 | 263 ft | 134 kts | 238° |
| 2026-04-27 15:22 | 40.88087 | 14.27981 | 536 ft | 159 kts | 238° |
| 2026-04-27 15:22 | 40.87532 | 14.26814 | 1307 ft | 149 kts | 233° |
| 2026-04-27 15:22 | 40.86809 | 14.25778 | 1924 ft | 161 kts | 224° |
| 2026-04-27 15:22 | 40.85903 | 14.24746 | 2434 ft | 182 kts | 221° |
| 2026-04-27 15:23 | 40.84808 | 14.23749 | 2932 ft | 202 kts | 203° |
| 2026-04-27 15:23 | 40.83367 | 14.23425 | 3423 ft | 222 kts | 174° |
| 2026-04-27 15:23 | 40.81803 | 14.23966 | 3909 ft | 241 kts | 162° |
| 2026-04-27 15:23 | 40.80177 | 14.24674 | 4552 ft | 254 kts | 161° |
| 2026-04-27 15:24 | 40.78449 | 14.25439 | 5217 ft | 266 kts | 161° |
| 2026-04-27 15:24 | 40.76701 | 14.26205 | 6216 ft | 265 kts | 161° |
| 2026-04-27 15:24 | 40.74920 | 14.26976 | 7011 ft | 272 kts | 162° |
| 2026-04-27 15:24 | 40.73221 | 14.28093 | 7830 ft | 278 kts | 140° |
| 2026-04-27 15:25 | 40.72031 | 14.30103 | 8635 ft | 284 kts | 114° |
| 2026-04-27 15:25 | 40.71627 | 14.32653 | 9452 ft | 289 kts | 88° |
| 2026-04-27 15:25 | 40.71932 | 14.35283 | 10260 ft | 293 kts | 78° |
| 2026-04-27 15:25 | 40.72404 | 14.37918 | 11022 ft | 297 kts | 69° |
| 2026-04-27 15:26 | 40.73470 | 14.40241 | 11768 ft | 299 kts | 44° |
| 2026-04-27 15:26 | 40.75183 | 14.41764 | 12530 ft | 300 kts | 19° |
| 2026-04-27 15:26 | 40.77226 | 14.42193 | 13305 ft | 300 kts | 354° |
| 2026-04-27 15:26 | 40.79286 | 14.41745 | 14069 ft | 302 kts | 347° |
| 2026-04-27 15:27 | 40.81353 | 14.41208 | 14799 ft | 304 kts | 347° |
| 2026-04-27 15:27 | 40.83430 | 14.40667 | 15531 ft | 305 kts | 347° |
| 2026-04-27 15:27 | 40.85527 | 14.40131 | 16227 ft | 308 kts | 347° |
| 2026-04-27 15:27 | 40.87643 | 14.39599 | 16946 ft | 310 kts | 347° |
| 2026-04-27 15:28 | 40.89774 | 14.39070 | 17658 ft | 313 kts | 347° |
| 2026-04-27 15:28 | 40.91891 | 14.38394 | 18353 ft | 313 kts | 338° |
| 2026-04-27 15:28 | 40.93854 | 14.37146 | 18940 ft | 315 kts | 326° |
| 2026-04-27 15:28 | 40.95589 | 14.35371 | 19496 ft | 317 kts | 319° |
| 2026-04-27 15:29 | 40.97275 | 14.33465 | 20067 ft | 320 kts | 319° |
| 2026-04-27 15:29 | 40.98978 | 14.31558 | 20630 ft | 323 kts | 319° |
| 2026-04-27 15:29 | 41.00703 | 14.29634 | 21187 ft | 325 kts | 319° |
| 2026-04-27 15:29 | 41.02441 | 14.27695 | 21746 ft | 328 kts | 319° |
| 2026-04-27 15:30 | 41.04192 | 14.25739 | 22308 ft | 331 kts | 319° |
| 2026-04-27 15:30 | 41.05955 | 14.23769 | 22863 ft | 333 kts | 318° |
| 2026-04-27 15:30 | 41.07737 | 14.21774 | 23413 ft | 336 kts | 318° |
| 2026-04-27 15:30 | 41.09529 | 14.19766 | 23913 ft | 339 kts | 318° |
| 2026-04-27 15:31 | 41.11336 | 14.17739 | 24371 ft | 341 kts | 318° |
| 2026-04-27 15:31 | 41.13153 | 14.15699 | 24822 ft | 343 kts | 318° |
| 2026-04-27 15:31 | 41.14981 | 14.13644 | 25271 ft | 345 kts | 318° |
| 2026-04-27 15:31 | 41.16818 | 14.11579 | 25703 ft | 348 kts | 318° |
| 2026-04-27 15:32 | 41.18671 | 14.09493 | 26120 ft | 350 kts | 318° |
| 2026-04-27 15:32 | 41.20531 | 14.07398 | 26552 ft | 352 kts | 318° |
| 2026-04-27 15:32 | 41.21771 | 14.06001 | 26821 ft | 354 kts | 318° |
| 2026-04-27 15:32 | 41.23655 | 14.03876 | 27222 ft | 356 kts | 318° |
| 2026-04-27 15:33 | 41.25546 | 14.01742 | 27627 ft | 358 kts | 318° |
| 2026-04-27 15:33 | 41.27450 | 13.99590 | 27992 ft | 361 kts | 318° |
| 2026-04-27 15:33 | 41.29360 | 13.97415 | 28370 ft | 362 kts | 316° |
| 2026-04-27 15:33 | 41.31134 | 13.95029 | 28729 ft | 364 kts | 312° |
| 2026-04-27 15:34 | 41.32873 | 13.92561 | 29091 ft | 367 kts | 312° |
| 2026-04-27 15:34 | 41.35200 | 13.89279 | 29587 ft | 369 kts | 313° |
| 2026-04-27 15:34 | 41.36395 | 13.87597 | 29821 ft | 371 kts | 312° |
| 2026-04-27 15:34 | 41.38169 | 13.85095 | 30178 ft | 373 kts | 312° |
| 2026-04-27 15:35 | 41.39950 | 13.82579 | 30480 ft | 374 kts | 312° |
| 2026-04-27 15:35 | 41.41732 | 13.80060 | 30899 ft | 372 kts | 312° |
| 2026-04-27 15:35 | 41.43500 | 13.77558 | 31329 ft | 370 kts | 312° |
| 2026-04-27 15:35 | 41.45258 | 13.75067 | 31745 ft | 368 kts | 312° |
| 2026-04-27 15:36 | 41.47005 | 13.72590 | 32152 ft | 366 kts | 312° |
| 2026-04-27 15:36 | 41.48745 | 13.70121 | 32515 ft | 365 kts | 312° |
| 2026-04-27 15:36 | 41.50455 | 13.67691 | 32867 ft | 363 kts | 311° |
| 2026-04-27 15:36 | 41.52181 | 13.65236 | 33224 ft | 362 kts | 311° |
| 2026-04-27 15:37 | 41.53899 | 13.62790 | 33544 ft | 361 kts | 311° |
| 2026-04-27 15:37 | 41.55615 | 13.60345 | 33849 ft | 360 kts | 311° |
| 2026-04-27 15:37 | 41.57328 | 13.57903 | 34134 ft | 360 kts | 311° |
| 2026-04-27 15:37 | 41.59037 | 13.55463 | 34365 ft | 360 kts | 311° |
| 2026-04-27 15:38 | 41.60746 | 13.53022 | 34563 ft | 360 kts | 311° |
| 2026-04-27 15:38 | 41.62457 | 13.50577 | 34756 ft | 360 kts | 311° |
| 2026-04-27 15:38 | 41.64168 | 13.48129 | 34947 ft | 360 kts | 311° |
| 2026-04-27 15:38 | 41.65879 | 13.45679 | 35135 ft | 361 kts | 311° |
| 2026-04-27 15:39 | 41.67595 | 13.43221 | 35283 ft | 362 kts | 311° |
| 2026-04-27 15:39 | 41.69318 | 13.40749 | 35410 ft | 364 kts | 312° |
| 2026-04-27 15:39 | 41.71048 | 13.38267 | 35554 ft | 365 kts | 312° |
| 2026-04-27 15:39 | 41.72784 | 13.35773 | 35680 ft | 367 kts | 312° |
| 2026-04-27 15:40 | 41.74525 | 13.33269 | 35818 ft | 368 kts | 312° |
| 2026-04-27 15:40 | 41.76270 | 13.30755 | 35939 ft | 369 kts | 312° |
| 2026-04-27 15:40 | 41.78021 | 13.28227 | 36046 ft | 371 kts | 312° |
| 2026-04-27 15:40 | 41.79779 | 13.25687 | 36169 ft | 372 kts | 312° |
| 2026-04-27 15:41 | 41.81625 | 13.23253 | 36290 ft | 374 kts | 318° |
| 2026-04-27 15:41 | 41.83673 | 13.21082 | 36388 ft | 376 kts | 324° |
| 2026-04-27 15:41 | 41.85888 | 13.19187 | 36509 ft | 378 kts | 327° |
| 2026-04-27 15:41 | 41.88142 | 13.17359 | 36629 ft | 379 kts | 327° |
| 2026-04-27 15:42 | 41.90396 | 13.15508 | 36750 ft | 380 kts | 327° |
| 2026-04-27 15:42 | 41.92653 | 13.13648 | 36861 ft | 382 kts | 327° |
| 2026-04-27 15:42 | 41.94921 | 13.11781 | 36973 ft | 383 kts | 327° |
| 2026-04-27 15:42 | 41.97195 | 13.09909 | 37086 ft | 384 kts | 327° |
| 2026-04-27 15:43 | 41.99477 | 13.08031 | 37192 ft | 385 kts | 327° |
| 2026-04-27 15:43 | 42.01763 | 13.06149 | 37301 ft | 386 kts | 327° |
| 2026-04-27 15:43 | 42.04056 | 13.04259 | 37408 ft | 387 kts | 327° |
| 2026-04-27 15:43 | 42.06358 | 13.02361 | 37510 ft | 388 kts | 327° |
| 2026-04-27 15:44 | 42.10972 | 12.98551 | 37693 ft | 390 kts | 328° |
| 2026-04-27 15:44 | 42.15612 | 12.94712 | 37878 ft | 392 kts | 328° |
| 2026-04-27 15:45 | 42.20271 | 12.90852 | 38053 ft | 394 kts | 328° |
| 2026-04-27 15:45 | 42.24955 | 12.86963 | 38097 ft | 396 kts | 328° |
| 2026-04-27 15:46 | 42.29634 | 12.83072 | 38099 ft | 395 kts | 328° |
| 2026-04-27 15:46 | 42.34279 | 12.79203 | 38103 ft | 395 kts | 328° |
| 2026-04-27 15:47 | 42.38958 | 12.75299 | 38103 ft | 395 kts | 328° |
| 2026-04-27 15:47 | 42.43627 | 12.71395 | 38105 ft | 395 kts | 328° |
| 2026-04-27 15:48 | 42.48305 | 12.67478 | 38102 ft | 395 kts | 328° |
| 2026-04-27 15:49 | 42.55317 | 12.61593 | 38091 ft | 395 kts | 328° |
| 2026-04-27 15:49 | 42.59984 | 12.57668 | 38087 ft | 395 kts | 328° |
| 2026-04-27 15:50 | 42.64655 | 12.53732 | 38078 ft | 395 kts | 328° |
| 2026-04-27 15:50 | 42.69321 | 12.49793 | 38078 ft | 395 kts | 328° |
| 2026-04-27 15:51 | 42.73989 | 12.45845 | 38070 ft | 395 kts | 328° |
| 2026-04-27 15:51 | 42.78654 | 12.41892 | 38068 ft | 395 kts | 327° |
| 2026-04-27 15:52 | 42.83317 | 12.37935 | 38072 ft | 395 kts | 327° |
| 2026-04-27 15:52 | 42.87979 | 12.33971 | 38073 ft | 395 kts | 327° |
| 2026-04-27 15:53 | 42.92641 | 12.30000 | 38076 ft | 395 kts | 327° |
| 2026-04-27 15:53 | 42.97299 | 12.26025 | 38074 ft | 395 kts | 327° |
| 2026-04-27 15:54 | 43.01955 | 12.22045 | 38074 ft | 395 kts | 327° |
| 2026-04-27 15:54 | 43.06512 | 12.17966 | 38076 ft | 394 kts | 322° |
| 2026-04-27 15:55 | 43.10702 | 12.13122 | 38073 ft | 394 kts | 319° |
| 2026-04-27 15:55 | 43.14825 | 12.08185 | 38072 ft | 394 kts | 319° |